createdAt,value
2023-02-14T00:00:25.256Z,93.33
2023-02-14T00:01:25.251Z,93.38
2023-02-14T00:02:25.252Z,93.70
2023-02-14T00:03:25.220Z,93.70
2023-02-14T00:04:25.364Z,94.01
2023-02-14T00:05:25.195Z,94.21
2023-02-14T00:06:25.173Z,94.21
2023-02-14T00:07:25.170Z,94.32
2023-02-14T00:08:25.176Z,94.42
2023-02-14T00:09:25.155Z,94.53
2023-02-14T00:10:25.156Z,94.42
2023-02-14T00:11:25.112Z,94.32
2023-02-14T00:12:31.652Z,94.32
2023-02-14T00:13:25.091Z,94.21
2023-02-14T00:14:25.098Z,94.21
2023-02-14T00:15:25.098Z,94.11
2023-02-14T00:16:25.143Z,94.32
2023-02-14T00:17:25.037Z,94.46
2023-02-14T00:18:25.035Z,94.57
2023-02-14T00:19:25.024Z,94.88
2023-02-14T00:20:25.034Z,95.09
2023-02-14T00:21:25.016Z,95.19
2023-02-14T00:22:25.008Z,95.19
2023-02-14T00:23:24.983Z,95.19
2023-02-14T00:24:25.038Z,95.25
2023-02-14T00:25:24.972Z,95.36
2023-02-14T00:26:24.934Z,95.46
2023-02-14T00:27:24.925Z,95.25
2023-02-14T00:28:24.921Z,95.25
2023-02-14T00:29:24.961Z,95.15
2023-02-14T00:30:24.989Z,94.88
2023-02-14T00:31:24.921Z,94.78
2023-02-14T00:32:31.418Z,95.09
2023-02-14T00:33:24.844Z,95.15
2023-02-14T00:34:24.867Z,95.15
2023-02-14T00:35:24.892Z,94.94
2023-02-14T00:36:24.855Z,94.73
2023-02-14T00:37:24.821Z,94.67
2023-02-14T00:38:24.796Z,94.46
2023-02-14T00:39:24.779Z,94.46
2023-02-14T00:40:24.778Z,94.46
2023-02-14T00:41:24.779Z,94.57
2023-02-14T00:42:24.769Z,94.46
2023-02-14T00:43:24.752Z,94.46
2023-02-14T00:44:24.731Z,94.67
2023-02-14T00:45:24.754Z,95.19
2023-02-14T00:46:24.712Z,95.29
2023-02-14T00:47:24.714Z,95.09
2023-02-14T00:48:24.710Z,95.09
2023-02-14T00:49:24.688Z,94.88
2023-02-14T00:50:24.675Z,94.98
2023-02-14T00:51:24.646Z,95.29
2023-02-14T00:52:31.243Z,95.29
2023-02-14T00:53:24.650Z,95.40
2023-02-14T00:54:24.617Z,95.50
2023-02-14T00:55:24.585Z,95.50
2023-02-14T00:56:24.583Z,95.61
2023-02-14T00:57:24.586Z,95.71
2023-02-14T00:58:24.560Z,95.81
2023-02-14T00:59:24.548Z,95.77
2023-02-14T01:00:24.579Z,95.67
2023-02-14T01:01:24.593Z,95.67
2023-02-14T01:02:24.575Z,95.67
2023-02-14T01:03:24.515Z,95.46
2023-02-14T01:04:24.499Z,95.15
2023-02-14T01:05:24.468Z,94.73
2023-02-14T01:06:24.470Z,94.67
2023-02-14T01:07:24.463Z,94.57
2023-02-14T01:08:24.463Z,94.36
2023-02-14T01:09:24.445Z,94.26
2023-02-14T01:10:24.437Z,94.15
2023-02-14T01:11:24.428Z,94.36
2023-02-14T01:12:24.418Z,94.36
2023-02-14T01:13:24.381Z,94.57
2023-02-14T01:14:24.404Z,94.61
2023-02-14T01:15:24.373Z,94.61
2023-02-14T01:16:24.437Z,94.61
2023-02-14T01:17:24.353Z,94.92
2023-02-14T01:18:24.334Z,94.92
2023-02-14T01:19:24.308Z,94.92
2023-02-14T01:20:24.317Z,94.82
2023-02-14T01:21:24.303Z,94.92
2023-02-14T01:22:31.127Z,94.92
2023-02-14T01:23:24.296Z,94.92
2023-02-14T01:24:24.263Z,95.03
2023-02-14T01:25:24.254Z,94.92
2023-02-14T01:26:24.272Z,94.86
2023-02-14T01:27:24.231Z,94.86
2023-02-14T01:28:24.236Z,94.86
2023-02-14T01:29:24.205Z,94.76
2023-02-14T01:30:24.347Z,94.86
2023-02-14T01:31:24.487Z,94.96
2023-02-14T01:32:24.291Z,95.07
2023-02-14T01:33:24.175Z,95.07
2023-02-14T01:34:24.157Z,95.07
2023-02-14T01:35:24.136Z,95.17
2023-02-14T01:36:24.160Z,95.28
2023-02-14T01:37:24.146Z,95.38
2023-02-14T01:38:24.156Z,95.48
2023-02-14T01:39:24.111Z,95.59
2023-02-14T01:40:24.088Z,95.59
2023-02-14T01:41:24.092Z,95.59
2023-02-14T01:42:30.658Z,95.48
2023-02-14T01:43:24.062Z,95.59
2023-02-14T01:44:24.062Z,95.59
2023-02-14T01:45:24.061Z,95.69
2023-02-14T01:46:24.052Z,95.59
2023-02-14T01:47:24.044Z,95.59
2023-02-14T01:48:24.081Z,95.69
2023-02-14T01:49:23.994Z,95.59
2023-02-14T01:50:23.984Z,95.48
2023-02-14T01:51:23.989Z,95.48
2023-02-14T01:52:23.988Z,95.48
2023-02-14T01:53:24.516Z,95.59
2023-02-14T01:54:24.000Z,95.48
2023-02-14T01:55:23.936Z,95.48
2023-02-14T01:56:23.954Z,95.63
2023-02-14T01:57:24.006Z,95.69
2023-02-14T01:58:23.978Z,95.69
2023-02-14T01:59:23.896Z,95.79
2023-02-14T02:00:23.901Z,95.90
2023-02-14T02:01:23.970Z,95.79
2023-02-14T02:02:24.168Z,95.73
2023-02-14T02:03:23.889Z,95.79
2023-02-14T02:04:23.842Z,95.79
2023-02-14T02:05:23.908Z,96.00
2023-02-14T02:06:23.862Z,96.00
2023-02-14T02:07:23.791Z,95.79
2023-02-14T02:08:23.832Z,95.69
2023-02-14T02:09:23.863Z,95.63
2023-02-14T02:10:23.804Z,95.63
2023-02-14T02:11:23.790Z,95.73
2023-02-14T02:12:23.771Z,95.73
2023-02-14T02:13:23.777Z,95.63
2023-02-14T02:14:23.755Z,95.53
2023-02-14T02:15:23.729Z,95.53
2023-02-14T02:16:23.755Z,95.73
2023-02-14T02:17:23.726Z,96.04
2023-02-14T02:18:23.710Z,96.15
2023-02-14T02:19:23.701Z,96.15
2023-02-14T02:20:23.679Z,96.04
2023-02-14T02:21:23.687Z,96.04
2023-02-14T02:22:30.475Z,95.84
2023-02-14T02:23:23.626Z,95.94
2023-02-14T02:24:23.642Z,95.94
2023-02-14T02:25:23.672Z,95.89
2023-02-14T02:26:23.589Z,95.89
2023-02-14T02:27:25.798Z,95.99
2023-02-14T02:28:23.620Z,96.20
2023-02-14T02:29:23.605Z,96.20
2023-02-14T02:30:23.718Z,96.30
2023-02-14T02:31:23.712Z,96.41
2023-02-14T02:32:23.548Z,96.61
2023-02-14T02:33:23.596Z,96.61
2023-02-14T02:34:23.514Z,96.61
2023-02-14T02:35:23.544Z,96.61
2023-02-14T02:36:23.526Z,96.61
2023-02-14T02:37:23.499Z,96.51
2023-02-14T02:38:23.481Z,96.61
2023-02-14T02:39:23.464Z,96.61
2023-02-14T02:40:23.441Z,96.72
2023-02-14T02:41:23.447Z,96.72
2023-02-14T02:42:29.936Z,96.51
2023-02-14T02:43:23.426Z,96.30
2023-02-14T02:44:23.435Z,96.30
2023-02-14T02:45:23.408Z,96.20
2023-02-14T02:46:23.418Z,96.09
2023-02-14T02:47:23.391Z,96.09
2023-02-14T02:48:23.350Z,96.14
2023-02-14T02:49:23.377Z,96.24
2023-02-14T02:50:23.357Z,96.24
2023-02-14T02:51:23.375Z,96.34
2023-02-14T02:52:23.340Z,96.45
2023-02-14T02:53:23.331Z,96.45
2023-02-14T02:54:23.317Z,96.45
2023-02-14T02:55:23.317Z,96.45
2023-02-14T02:56:23.289Z,96.66
2023-02-14T02:57:23.275Z,96.55
2023-02-14T02:58:23.243Z,96.55
2023-02-14T02:59:23.291Z,96.66
2023-02-14T03:00:23.249Z,96.86
2023-02-14T03:01:23.273Z,96.86
2023-02-14T03:02:29.758Z,96.97
2023-02-14T03:03:23.235Z,97.07
2023-02-14T03:04:23.243Z,96.97
2023-02-14T03:05:23.220Z,97.07
2023-02-14T03:06:23.174Z,97.28
2023-02-14T03:07:23.183Z,97.28
2023-02-14T03:08:23.149Z,97.07
2023-02-14T03:09:23.150Z,97.07
2023-02-14T03:10:23.132Z,96.97
2023-02-14T03:11:23.127Z,96.97
2023-02-14T03:12:23.099Z,97.17
2023-02-14T03:13:23.087Z,97.28
2023-02-14T03:14:23.065Z,97.38
2023-02-14T03:15:23.082Z,97.49
2023-02-14T03:16:23.058Z,97.49
2023-02-14T03:17:23.070Z,97.38
2023-02-14T03:18:23.029Z,97.38
2023-02-14T03:19:23.047Z,97.28
2023-02-14T03:20:23.005Z,97.28
2023-02-14T03:21:23.040Z,97.17
2023-02-14T03:22:23.005Z,97.17
2023-02-14T03:23:23.007Z,97.17
2023-02-14T03:24:22.982Z,97.17
2023-02-14T03:25:22.994Z,97.17
2023-02-14T03:26:22.964Z,97.17
2023-02-14T03:27:22.966Z,97.28
2023-02-14T03:28:22.923Z,97.17
2023-02-14T03:29:23.531Z,97.07
2023-02-14T03:30:22.954Z,97.07
2023-02-14T03:31:23.005Z,97.17
2023-02-14T03:32:23.034Z,97.38
2023-02-14T03:33:22.927Z,97.28
2023-02-14T03:34:22.862Z,97.38
2023-02-14T03:35:22.919Z,97.28
2023-02-14T03:36:22.865Z,97.38
2023-02-14T03:37:22.853Z,97.55
2023-02-14T03:38:22.840Z,97.55
2023-02-14T03:39:22.844Z,97.65
2023-02-14T03:40:23.594Z,97.44
2023-02-14T03:41:22.815Z,97.40
2023-02-14T03:42:29.328Z,96.98
2023-02-14T03:43:22.868Z,96.88
2023-02-14T03:44:22.769Z,96.88
2023-02-14T03:45:22.797Z,96.47
2023-02-14T03:46:22.861Z,96.25
2023-02-14T03:47:22.747Z,96.25
2023-02-14T03:48:22.719Z,96.04
2023-02-14T03:49:22.734Z,96.04
2023-02-14T03:50:22.707Z,96.04
2023-02-14T03:51:22.683Z,95.73
2023-02-14T03:52:22.684Z,95.84
2023-02-14T03:53:22.664Z,95.94
2023-02-14T03:54:22.684Z,95.73
2023-02-14T03:55:22.644Z,95.67
2023-02-14T03:56:22.630Z,95.57
2023-02-14T03:57:22.640Z,95.78
2023-02-14T03:58:22.598Z,95.89
2023-02-14T03:59:22.601Z,95.99
2023-02-14T04:00:22.604Z,96.20
2023-02-14T04:01:22.634Z,96.41
2023-02-14T04:02:22.598Z,96.30
2023-02-14T04:03:22.593Z,96.20
2023-02-14T04:04:22.533Z,96.20
2023-02-14T04:05:22.558Z,96.41
2023-02-14T04:06:22.609Z,96.41
2023-02-14T04:07:22.511Z,96.41
2023-02-14T04:08:22.506Z,96.45
2023-02-14T04:09:22.484Z,96.45
2023-02-14T04:10:22.471Z,96.45
2023-02-14T04:11:24.377Z,96.45
2023-02-14T04:12:36.779Z,96.45
2023-02-14T04:13:22.458Z,96.76
2023-02-14T04:14:22.451Z,96.76
2023-02-14T04:15:22.416Z,96.66
2023-02-14T04:16:22.487Z,96.55
2023-02-14T04:17:22.410Z,96.66
2023-02-14T04:18:22.387Z,96.76
2023-02-14T04:19:22.390Z,96.66
2023-02-14T04:20:22.401Z,96.55
2023-02-14T04:21:22.382Z,96.66
2023-02-14T04:22:28.872Z,96.76
2023-02-14T04:23:22.329Z,96.76
2023-02-14T04:24:22.355Z,97.07
2023-02-14T04:25:22.312Z,97.28
2023-02-14T04:26:22.341Z,97.28
2023-02-14T04:27:22.316Z,97.38
2023-02-14T04:28:22.289Z,97.38
2023-02-14T04:29:22.291Z,97.28
2023-02-14T04:30:22.343Z,97.17
2023-02-14T04:31:22.376Z,97.13
2023-02-14T04:32:22.310Z,97.03
2023-02-14T04:33:23.159Z,96.82
2023-02-14T04:34:22.246Z,96.61
2023-02-14T04:35:22.236Z,96.61
2023-02-14T04:36:22.246Z,96.51
2023-02-14T04:37:22.237Z,96.30
2023-02-14T04:38:22.202Z,96.41
2023-02-14T04:39:22.190Z,96.41
2023-02-14T04:40:22.212Z,96.61
2023-02-14T04:41:22.187Z,96.51
2023-02-14T04:42:28.685Z,96.30
2023-02-14T04:43:22.151Z,96.34
2023-02-14T04:44:22.146Z,96.55
2023-02-14T04:45:22.107Z,96.66
2023-02-14T04:46:22.145Z,96.82
2023-02-14T04:47:22.098Z,96.51
2023-02-14T04:48:22.095Z,96.45
2023-02-14T04:49:22.092Z,96.34
2023-02-14T04:50:22.078Z,96.24
2023-02-14T04:51:22.076Z,96.14
2023-02-14T04:52:22.075Z,96.24
2023-02-14T04:53:22.051Z,96.24
2023-02-14T04:54:22.047Z,96.24
2023-02-14T04:55:22.034Z,96.49
2023-02-14T04:56:22.035Z,96.66
2023-02-14T04:57:22.013Z,96.70
2023-02-14T04:58:22.007Z,96.59
2023-02-14T04:59:23.775Z,96.59
2023-02-14T05:00:21.977Z,96.70
2023-02-14T05:01:22.057Z,96.70
2023-02-14T05:02:28.519Z,96.70
2023-02-14T05:03:21.926Z,96.70
2023-02-14T05:04:21.957Z,96.70
2023-02-14T05:05:21.911Z,96.80
2023-02-14T05:06:21.907Z,96.91
2023-02-14T05:07:21.887Z,97.12
2023-02-14T05:08:21.975Z,97.27
2023-02-14T05:09:21.904Z,97.33
2023-02-14T05:10:21.893Z,97.27
2023-02-14T05:11:21.844Z,97.33
2023-02-14T05:12:21.918Z,97.47
2023-02-14T05:13:21.845Z,97.58
2023-02-14T05:14:21.824Z,97.58
2023-02-14T05:15:21.833Z,97.47
2023-02-14T05:16:21.833Z,97.47
2023-02-14T05:17:21.826Z,97.58
2023-02-14T05:18:21.820Z,97.89
2023-02-14T05:19:21.770Z,97.78
2023-02-14T05:20:21.784Z,97.68
2023-02-14T05:21:21.781Z,97.47
2023-02-14T05:22:22.007Z,97.47
2023-02-14T05:23:21.745Z,97.47
2023-02-14T05:24:21.754Z,97.37
2023-02-14T05:25:21.723Z,97.37
2023-02-14T05:26:21.707Z,97.47
2023-02-14T05:27:21.706Z,97.47
2023-02-14T05:28:21.702Z,97.58
2023-02-14T05:29:21.720Z,97.58
2023-02-14T05:30:21.769Z,97.78
2023-02-14T05:31:21.889Z,97.78
2023-02-14T05:32:29.742Z,97.72
2023-02-14T05:33:21.622Z,97.78
2023-02-14T05:34:21.941Z,97.72
2023-02-14T05:35:21.623Z,97.72
2023-02-14T05:36:21.745Z,97.72
2023-02-14T05:37:21.604Z,97.72
2023-02-14T05:38:21.588Z,97.83
2023-02-14T05:39:21.680Z,97.83
2023-02-14T05:40:21.568Z,97.83
2023-02-14T05:41:21.567Z,97.72
2023-02-14T05:42:21.550Z,97.83
2023-02-14T05:43:21.530Z,97.94
2023-02-14T05:44:21.542Z,98.04
2023-02-14T05:45:21.545Z,98.04
2023-02-14T05:46:21.505Z,98.14
2023-02-14T05:47:21.493Z,98.14
2023-02-14T05:48:21.517Z,98.25
2023-02-14T05:49:21.476Z,98.35
2023-02-14T05:50:21.484Z,98.35
2023-02-14T05:51:21.453Z,98.35
2023-02-14T05:52:27.963Z,98.25
2023-02-14T05:53:21.452Z,98.25
2023-02-14T05:54:21.430Z,98.14
2023-02-14T05:55:21.422Z,98.25
2023-02-14T05:56:21.433Z,98.25
2023-02-14T05:57:21.423Z,98.35
2023-02-14T05:58:21.417Z,98.56
2023-02-14T05:59:21.391Z,98.77
2023-02-14T06:00:21.401Z,98.87
2023-02-14T06:01:21.350Z,98.83
2023-02-14T06:02:21.385Z,98.83
2023-02-14T06:03:21.342Z,98.62
2023-02-14T06:04:21.361Z,98.62
2023-02-14T06:05:21.308Z,98.41
2023-02-14T06:06:21.310Z,98.41
2023-02-14T06:07:21.311Z,98.31
2023-02-14T06:08:21.299Z,98.31
2023-02-14T06:09:21.292Z,98.20
2023-02-14T06:10:21.337Z,98.31
2023-02-14T06:11:21.283Z,98.31
2023-02-14T06:12:27.788Z,98.31
2023-02-14T06:13:21.284Z,98.31
2023-02-14T06:14:21.237Z,98.10
2023-02-14T06:15:21.230Z,98.10
2023-02-14T06:16:21.258Z,98.20
2023-02-14T06:17:21.220Z,98.10
2023-02-14T06:18:21.191Z,98.20
2023-02-14T06:19:21.188Z,98.20
2023-02-14T06:20:21.207Z,98.20
2023-02-14T06:21:21.173Z,98.16
2023-02-14T06:22:21.197Z,97.85
2023-02-14T06:23:21.176Z,97.68
2023-02-14T06:24:21.172Z,97.47
2023-02-14T06:25:21.120Z,97.37
2023-02-14T06:26:21.155Z,97.47
2023-02-14T06:27:21.128Z,97.89
2023-02-14T06:28:22.054Z,98.10
2023-02-14T06:29:21.118Z,98.10
2023-02-14T06:30:21.185Z,97.99
2023-02-14T06:31:21.384Z,97.89
2023-02-14T06:32:27.626Z,97.89
2023-02-14T06:33:21.059Z,97.99
2023-02-14T06:34:21.056Z,97.99
2023-02-14T06:35:21.088Z,97.89
2023-02-14T06:36:21.084Z,97.72
2023-02-14T06:37:21.040Z,97.83
2023-02-14T06:38:21.022Z,97.83
2023-02-14T06:39:20.998Z,97.83
2023-02-14T06:40:21.039Z,97.83
2023-02-14T06:41:21.042Z,97.83
2023-02-14T06:42:21.502Z,97.83
2023-02-14T06:43:20.949Z,97.94
2023-02-14T06:44:21.426Z,97.94
2023-02-14T06:45:21.348Z,98.04
2023-02-14T06:46:20.974Z,98.04
2023-02-14T06:47:23.800Z,98.14
2023-02-14T06:48:21.807Z,98.14
2023-02-14T06:49:23.103Z,98.14
2023-02-14T06:50:21.844Z,98.14
2023-02-14T06:51:21.184Z,98.14
2023-02-14T06:52:20.913Z,98.25
2023-02-14T06:53:20.850Z,98.35
2023-02-14T06:54:20.865Z,98.35
2023-02-14T06:55:20.872Z,98.35
2023-02-14T06:56:20.880Z,98.35
2023-02-14T06:57:20.817Z,98.35
2023-02-14T06:58:21.328Z,98.35
2023-02-14T06:59:20.789Z,98.35
2023-02-14T07:00:20.804Z,98.31
2023-02-14T07:01:22.811Z,98.10
2023-02-14T07:02:22.901Z,97.99
2023-02-14T07:03:20.771Z,97.89
2023-02-14T07:04:20.770Z,98.10
2023-02-14T07:05:20.772Z,98.10
2023-02-14T07:06:20.747Z,97.99
2023-02-14T07:07:20.726Z,97.99
2023-02-14T07:08:20.726Z,97.99
2023-02-14T07:09:21.346Z,97.89
2023-02-14T07:10:20.704Z,97.89
2023-02-14T07:11:20.733Z,97.78
2023-02-14T07:12:20.756Z,97.95
2023-02-14T07:13:20.699Z,97.95
2023-02-14T07:14:21.349Z,97.95
2023-02-14T07:15:20.692Z,97.85
2023-02-14T07:16:20.630Z,97.64
2023-02-14T07:17:20.663Z,97.74
2023-02-14T07:18:20.618Z,97.64
2023-02-14T07:19:20.585Z,97.59
2023-02-14T07:20:20.593Z,97.38
2023-02-14T07:21:20.573Z,97.17
2023-02-14T07:22:20.562Z,96.86
2023-02-14T07:23:20.543Z,96.66
2023-02-14T07:24:20.580Z,96.55
2023-02-14T07:25:20.977Z,96.45
2023-02-14T07:26:21.738Z,96.24
2023-02-14T07:27:21.885Z,96.14
2023-02-14T07:28:20.718Z,96.14
2023-02-14T07:29:24.761Z,95.93
2023-02-14T07:30:29.032Z,95.72
2023-02-14T07:31:23.934Z,95.62
2023-02-14T07:32:31.405Z,95.62
2023-02-14T07:33:22.564Z,95.51
2023-02-14T07:34:20.690Z,95.51
2023-02-14T07:35:21.394Z,95.40
2023-02-14T07:36:21.345Z,95.30
2023-02-14T07:37:33.205Z,95.40
2023-02-14T07:38:20.451Z,95.30
2023-02-14T07:39:20.985Z,95.20
2023-02-14T07:40:30.301Z,95.05
2023-02-14T07:41:21.383Z,94.95
2023-02-14T07:42:20.377Z,95.05
2023-02-14T07:43:20.421Z,95.05
2023-02-14T07:44:21.088Z,95.05
2023-02-14T07:45:21.958Z,95.05
2023-02-14T07:46:21.890Z,94.95
2023-02-14T07:47:20.301Z,94.95
2023-02-14T07:48:20.376Z,94.84
2023-02-14T07:49:20.272Z,94.84
2023-02-14T07:50:21.156Z,94.80
2023-02-14T07:51:20.241Z,94.80
2023-02-14T07:52:26.802Z,94.59
2023-02-14T07:53:20.247Z,94.49
2023-02-14T07:54:20.428Z,94.59
2023-02-14T07:55:20.224Z,94.55
2023-02-14T07:56:20.217Z,94.45
2023-02-14T07:57:20.209Z,94.34
2023-02-14T07:58:20.190Z,94.34
2023-02-14T07:59:20.166Z,94.20
2023-02-14T08:00:20.742Z,94.09
2023-02-14T08:01:20.135Z,93.99
2023-02-14T08:02:20.174Z,93.88
2023-02-14T08:03:20.130Z,93.63
2023-02-14T08:04:20.126Z,93.53
2023-02-14T08:05:20.155Z,93.53
2023-02-14T08:06:20.145Z,93.32
2023-02-14T08:07:23.124Z,93.12
2023-02-14T08:08:20.063Z,92.97
2023-02-14T08:09:20.246Z,92.97
2023-02-14T08:10:20.269Z,92.76
2023-02-14T08:11:21.170Z,92.66
2023-02-14T08:13:30.749Z,92.82
2023-02-14T08:14:31.682Z,92.72
2023-02-14T08:15:31.713Z,92.72
2023-02-14T08:16:31.980Z,92.68
2023-02-14T08:17:31.666Z,92.59
2023-02-14T08:18:31.887Z,91.42
2023-02-14T08:19:31.984Z,88.16
2023-02-14T08:20:31.652Z,84.19
2023-02-14T08:21:31.660Z,80.36
2023-02-14T08:22:31.600Z,77.82
2023-02-14T08:23:31.567Z,76.48
2023-02-14T08:24:31.575Z,74.66
2023-02-14T08:25:31.729Z,71.69
2023-02-14T08:26:32.175Z,69.34
2023-02-14T08:27:31.538Z,66.66
2023-02-14T08:28:32.783Z,63.20
2023-02-14T08:29:32.810Z,62.05
2023-02-14T08:30:31.640Z,61.38
2023-02-14T08:31:36.450Z,60.64
2023-02-14T08:32:31.853Z,59.91
2023-02-14T08:33:31.471Z,59.39
2023-02-14T08:34:31.458Z,58.65
2023-02-14T08:35:32.278Z,58.69
2023-02-14T08:36:31.444Z,59.16
2023-02-14T08:37:38.465Z,57.48
2023-02-14T08:38:31.393Z,56.57
2023-02-14T08:39:31.416Z,56.44
2023-02-14T08:40:31.394Z,55.93
2023-02-14T08:41:31.424Z,56.49
2023-02-14T08:42:31.376Z,55.40
2023-02-14T08:43:33.360Z,55.27
2023-02-14T08:44:32.205Z,55.17
2023-02-14T08:45:31.371Z,56.92
2023-02-14T08:46:31.369Z,57.05
2023-02-14T08:47:31.314Z,56.65
2023-02-14T08:48:31.304Z,56.57
2023-02-14T08:49:31.310Z,57.28
2023-02-14T08:50:31.306Z,58.02
2023-02-14T08:51:32.193Z,58.50
2023-02-14T08:52:31.275Z,57.46
2023-02-14T08:53:31.285Z,58.06
2023-02-14T08:54:31.238Z,57.03
2023-02-14T08:55:31.232Z,57.68
2023-02-14T08:56:31.210Z,58.02
2023-02-14T08:57:32.221Z,58.25
2023-02-14T08:58:32.540Z,59.50
2023-02-14T08:59:31.248Z,60.31
2023-02-14T09:00:46.534Z,60.28
2023-02-14T09:01:31.212Z,59.54
2023-02-14T09:02:31.159Z,59.21
2023-02-14T09:03:31.269Z,58.98
2023-02-14T09:04:31.186Z,58.50
2023-02-14T09:05:31.131Z,59.56
2023-02-14T09:06:31.103Z,56.82
2023-02-14T09:07:31.107Z,56.31
2023-02-14T09:08:31.368Z,57.43
2023-02-14T09:09:31.092Z,57.76
2023-02-14T09:10:31.086Z,57.05
2023-02-14T09:11:31.118Z,56.98
2023-02-14T09:12:37.553Z,57.68
2023-02-14T09:13:31.088Z,57.71
2023-02-14T09:14:32.159Z,58.96
2023-02-14T09:15:31.030Z,58.50
2023-02-14T09:16:31.020Z,57.68
2023-02-14T09:17:34.655Z,56.87
2023-02-14T09:18:30.977Z,59.24
2023-02-14T09:19:31.010Z,58.86
2023-02-14T09:20:30.949Z,59.95
2023-02-14T09:21:31.002Z,57.48
2023-02-14T09:22:30.920Z,58.12
2023-02-14T09:23:30.933Z,58.58
2023-02-14T09:24:31.639Z,58.65
2023-02-14T09:25:30.928Z,58.02
2023-02-14T09:26:30.890Z,56.90
2023-02-14T09:27:30.893Z,57.68
2023-02-14T09:28:31.728Z,58.17
2023-02-14T09:29:33.559Z,56.87
2023-02-14T09:30:30.890Z,57.25
2023-02-14T09:31:30.979Z,56.57
2023-02-14T09:32:47.484Z,57.28
2023-02-14T09:33:48.548Z,58.17
2023-02-14T09:34:53.110Z,57.25
2023-02-14T09:35:30.794Z,56.82
2023-02-14T09:36:30.766Z,57.23
2023-02-14T09:37:30.763Z,55.93
2023-02-14T09:38:31.950Z,54.94
2023-02-14T09:39:31.680Z,54.46
2023-02-14T09:40:30.703Z,56.11
2023-02-14T09:41:31.297Z,55.52
2023-02-14T09:42:31.070Z,53.85
2023-02-14T09:43:30.714Z,53.40
2023-02-14T09:44:30.665Z,52.36
2023-02-14T09:45:30.865Z,50.72
2023-02-14T09:46:30.661Z,51.55
2023-02-14T09:47:30.667Z,50.59
2023-02-14T09:48:30.636Z,50.57
2023-02-14T09:49:30.768Z,48.55
2023-02-14T09:50:30.616Z,50.16
2023-02-14T09:51:30.629Z,50.70
2023-02-14T09:52:30.630Z,51.45
2023-02-14T09:53:33.063Z,51.17
2023-02-14T09:54:30.611Z,51.35
2023-02-14T09:55:30.569Z,50.21
2023-02-14T09:56:33.576Z,51.18
2023-02-14T09:57:30.580Z,48.75
2023-02-14T09:58:31.701Z,49.69
2023-02-14T09:59:31.293Z,49.56
2023-02-14T10:00:30.508Z,49.56
2023-02-14T10:01:31.290Z,48.93
2023-02-14T10:02:30.540Z,48.43
2023-02-14T10:03:31.021Z,49.04
2023-02-14T10:04:30.477Z,48.91
2023-02-14T10:05:31.270Z,49.19
2023-02-14T10:06:30.441Z,48.46
2023-02-14T10:07:30.424Z,46.93
2023-02-14T10:08:30.417Z,46.42
2023-02-14T10:09:30.406Z,47.33
2023-02-14T10:10:30.402Z,46.62
2023-02-14T10:11:33.330Z,46.02
2023-02-14T10:12:37.320Z,46.20
2023-02-14T10:13:30.353Z,46.47
2023-02-14T10:14:30.362Z,46.67
2023-02-14T10:15:30.368Z,46.87
2023-02-14T10:17:27.411Z,46.37
2023-02-14T10:18:21.072Z,46.59
2023-02-14T10:19:20.140Z,47.32
2023-02-14T10:20:20.163Z,47.19
2023-02-14T10:21:20.140Z,46.95
2023-02-14T10:22:22.354Z,46.04
2023-02-14T10:23:21.464Z,45.92
2023-02-14T10:24:20.126Z,45.92
2023-02-14T10:25:20.155Z,46.17
2023-02-14T10:26:20.064Z,47.25
2023-02-14T10:27:20.077Z,46.22
2023-02-14T10:28:20.947Z,44.67
2023-02-14T10:29:20.062Z,44.35
2023-02-14T10:30:20.088Z,44.45
2023-02-14T10:31:20.147Z,44.12
2023-02-14T10:32:20.118Z,43.58
2023-02-14T10:33:19.998Z,42.54
2023-02-14T10:34:19.996Z,42.54
2023-02-14T10:35:19.996Z,42.05
2023-02-14T10:36:20.015Z,42.38
2023-02-14T10:37:20.173Z,43.30
2023-02-14T10:38:19.925Z,43.54
2023-02-14T10:39:19.914Z,44.27
2023-02-14T10:40:19.897Z,44.89
2023-02-14T10:41:19.910Z,44.57
2023-02-14T10:43:11.517Z,43.95
2023-02-14T10:44:12.494Z,43.64
2023-02-14T10:45:13.276Z,43.44
2023-02-14T10:46:12.514Z,43.88
2023-02-14T10:47:12.452Z,45.26
2023-02-14T10:48:12.516Z,45.46
2023-02-14T10:49:12.437Z,46.37
2023-02-14T10:50:12.418Z,45.97
2023-02-14T10:51:12.465Z,45.00
2023-02-14T10:52:12.432Z,43.54
2023-02-14T10:53:12.400Z,43.66
2023-02-14T10:54:12.362Z,43.42
2023-02-14T10:55:13.894Z,42.47
2023-02-14T10:56:12.363Z,42.05
2023-02-14T10:57:12.376Z,41.53
2023-02-14T10:58:14.950Z,41.57
2023-02-14T10:59:12.946Z,42.52
2023-02-14T11:00:12.530Z,43.60
2023-02-14T11:01:12.500Z,44.39
2023-02-14T11:02:12.307Z,43.10
2023-02-14T11:03:12.314Z,41.71
2023-02-14T11:04:13.054Z,40.17
2023-02-14T11:05:12.284Z,40.17
2023-02-14T11:06:12.943Z,40.17
2023-02-14T11:07:12.251Z,39.75
2023-02-14T11:08:12.981Z,39.75
2023-02-14T11:09:12.275Z,39.01
2023-02-14T11:10:12.229Z,37.99
2023-02-14T11:11:12.190Z,38.01
2023-02-14T11:12:27.848Z,38.29
2023-02-14T11:13:12.182Z,38.53
2023-02-14T11:14:12.167Z,38.71
2023-02-14T11:15:12.154Z,37.88
2023-02-14T11:16:12.185Z,38.63
2023-02-14T11:17:11.120Z,39.37
2023-02-14T11:18:15.187Z,40.51
2023-02-14T11:20:00.851Z,38.91
2023-02-14T11:21:02.333Z,38.70
2023-02-14T11:22:02.771Z,37.77
2023-02-14T11:23:08.288Z,37.76
2023-02-14T11:24:01.755Z,37.34
2023-02-14T11:25:04.346Z,36.96
2023-02-14T11:26:02.613Z,37.38
